Time;durP1;ratioP1;P1;durP2;ratioP2;P2;SDS_P1;SDS_P2;PMS_P1;PMS_P2;Temp;Humidity;BMP_temperature;BMP_pressure;BME280_temperature;BME280_humidity;BME280_pressure;Samples;Min_cycle;Max_cycle;Signal;HPM_P1;HPM_P2
2021/07/20 00:00:06;;;;;;;2.70;2.07;;;27.80;72.20;;;;;;5105466;28;20028;-42
2021/07/20 00:02:42;;;;;;;2.53;1.90;;;27.80;72.30;;;;;;5105650;28;20074;-42
2021/07/20 00:05:10;;;;;;;2.33;1.80;;;27.80;72.30;;;;;;5105689;28;20032;-42
2021/07/20 00:07:36;;;;;;;2.38;2.08;;;27.80;72.20;;;;;;5087101;28;20020;-42
2021/07/20 00:10:06;;;;;;;2.22;2.00;;;27.80;72.20;;;;;;5105371;28;20043;-42
2021/07/20 00:12:33;;;;;;;2.83;1.90;;;27.80;72.20;;;;;;5104111;28;20489;-42
2021/07/20 00:14:59;;;;;;;3.10;2.03;;;27.70;72.20;;;;;;5105561;28;20031;-42
2021/07/20 00:17:27;;;;;;;2.83;2.25;;;27.70;72.90;;;;;;5105238;28;20058;-43
2021/07/20 00:19:54;;;;;;;3.75;2.10;;;27.70;72.20;;;;;;5105174;28;20071;-42
2021/07/20 00:22:20;;;;;;;3.60;2.43;;;27.70;72.20;;;;;;5104873;28;20028;-42
2021/07/20 00:24:46;;;;;;;3.07;1.97;;;27.70;72.20;;;;;;5105259;28;20154;-42
2021/07/20 00:27:12;;;;;;;3.60;2.20;;;27.70;72.30;;;;;;5105153;28;20036;-42
2021/07/20 00:29:38;;;;;;;2.95;2.30;;;27.70;72.30;;;;;;5104992;28;20038;-42
2021/07/20 00:32:05;;;;;;;2.80;2.05;;;27.70;72.20;;;;;;5104783;28;20046;-42
2021/07/20 00:34:31;;;;;;;2.97;1.90;;;27.70;72.20;;;;;;5104968;28;20043;-42
2021/07/20 00:36:57;;;;;;;4.70;2.17;;;27.70;72.20;;;;;;5104926;28;20095;-42
2021/07/20 00:39:24;;;;;;;5.17;2.07;;;27.70;72.20;;;;;;5105293;28;20374;-42
2021/07/20 00:41:50;;;;;;;2.70;2.00;;;27.60;72.20;;;;;;5104513;28;20043;-42
2021/07/20 00:44:17;;;;;;;3.10;1.70;;;27.60;72.20;;;;;;5104610;28;20028;-42
2021/07/20 00:46:43;;;;;;;5.07;2.43;;;27.60;72.20;;;;;;5104838;28;20046;-42
2021/07/20 00:49:09;;;;;;;1.95;1.73;;;27.60;72.20;;;;;;5104668;28;20288;-42
2021/07/20 00:51:35;;;;;;;2.83;2.00;;;27.60;72.30;;;;;;5104531;28;20039;-42
2021/07/20 00:54:01;;;;;;;3.00;2.05;;;27.60;72.20;;;;;;5104691;28;20030;-42
2021/07/20 00:56:27;;;;;;;2.97;1.87;;;27.60;72.30;;;;;;5086289;28;20028;-42
2021/07/20 00:58:55;;;;;;;2.45;2.10;;;27.60;72.30;;;;;;5090122;28;20289;-42
2021/07/20 01:01:21;;;;;;;2.90;1.95;;;27.60;72.30;;;;;;5104195;28;20047;-42
2021/07/20 01:03:47;;;;;;;3.38;2.03;;;27.60;72.30;;;;;;5104546;28;20036;-42
2021/07/20 01:06:13;;;;;;;3.10;2.00;;;27.50;72.20;;;;;;5104553;28;20351;-42
2021/07/20 01:08:40;;;;;;;2.50;1.98;;;27.50;72.20;;;;;;5085777;28;20043;-42
2021/07/20 01:11:06;;;;;;;2.45;1.83;;;27.50;72.30;;;;;;5085740;28;20043;-42
2021/07/20 01:13:33;;;;;;;3.63;2.10;;;27.50;72.30;;;;;;5085890;28;20053;-42
2021/07/20 01:15:59;;;;;;;2.65;2.15;;;27.50;72.30;;;;;;5104296;28;20302;-42
2021/07/20 01:18:25;;;;;;;3.17;1.60;;;27.50;72.30;;;;;;5104107;28;20060;-42
2021/07/20 01:20:52;;;;;;;3.73;1.80;;;27.50;72.30;;;;;;5069420;28;20548;-42
2021/07/20 01:23:27;;;;;;;2.10;1.90;;;27.50;72.30;;;;;;5103149;28;20283;-42
2021/07/20 01:25:53;;;;;;;2.92;2.10;;;27.50;72.30;;;;;;5103908;28;20292;-42
2021/07/20 01:28:22;;;;;;;2.10;1.80;;;27.40;72.20;;;;;;5103597;28;20032;-42
2021/07/20 01:30:59;;;;;;;2.97;2.03;;;27.40;72.20;;;;;;5069556;28;20065;-42
2021/07/20 01:33:27;;;;;;;2.00;1.80;;;27.40;72.20;;;;;;5070377;28;20032;-42
2021/07/20 01:35:53;;;;;;;2.63;1.90;;;27.40;72.30;;;;;;5085511;28;20937;-43
2021/07/20 01:38:20;;;;;;;2.60;1.80;;;27.40;72.20;;;;;;5085494;28;20095;-42
2021/07/20 01:40:46;;;;;;;2.85;1.95;;;27.40;72.20;;;;;;5085623;28;20024;-43
2021/07/20 01:43:12;;;;;;;2.57;2.00;;;27.40;72.20;;;;;;5068557;28;20030;-42
2021/07/20 01:45:39;;;;;;;2.40;1.70;;;27.40;72.20;;;;;;5085287;28;20089;-42
2021/07/20 01:48:05;;;;;;;;;;;27.40;72.20;;;;;;5069050;28;20020;-42
2021/07/20 01:50:32;;;;;;;2.03;1.67;;;27.40;72.20;;;;;;5085142;28;20422;-42
2021/07/20 01:52:58;;;;;;;3.25;2.00;;;27.30;72.10;;;;;;5085121;28;20396;-42
2021/07/20 01:55:25;;;;;;;2.45;1.83;;;27.30;72.10;;;;;;5085235;28;20110;-42
2021/07/20 01:57:51;;;;;;;;;;;27.30;72.10;;;;;;5085435;28;20067;-42
2021/07/20 02:00:18;;;;;;;2.15;1.70;;;27.30;72.10;;;;;;5103406;28;19927;-42
2021/07/20 02:08:27;;;;;;;1.70;1.60;;;27.30;72.20;;;;;;5069926;28;20058;-44
2021/07/20 02:11:04;;;;;;;2.22;1.80;;;27.30;72.10;;;;;;5082997;28;20036;-42
2021/07/20 02:13:39;;;;;;;1.90;1.60;;;27.30;72.10;;;;;;5064405;28;20048;-42
2021/07/20 02:16:05;;;;;;;2.58;1.50;;;27.20;72.20;;;;;;5065603;28;20059;-42
2021/07/20 02:18:32;;;;;;;4.05;1.60;;;27.30;72.30;;;;;;5064720;28;20020;-43
2021/07/20 02:21:01;;;;;;;2.10;1.37;;;27.20;72.10;;;;;;5081628;28;20028;-42
2021/07/20 02:23:30;;;;;;;3.05;1.70;;;27.20;72.20;;;;;;5097550;28;20028;-42
2021/07/20 02:25:56;;;;;;;2.08;1.35;;;27.20;72.20;;;;;;5084742;28;20077;-42
2021/07/20 02:28:23;;;;;;;3.03;1.60;;;27.20;72.20;;;;;;5084374;28;20028;-42
2021/07/20 02:30:49;;;;;;;2.05;1.40;;;27.20;72.30;;;;;;5067926;28;20028;-43
2021/07/20 02:33:16;;;;;;;1.63;1.40;;;27.20;72.30;;;;;;5067861;28;20053;-42
2021/07/20 02:35:42;;;;;;;1.75;1.40;;;27.20;72.10;;;;;;5083988;28;20102;-42
2021/07/20 02:38:08;;;;;;;2.65;1.42;;;27.20;72.20;;;;;;5084811;28;20028;-42
2021/07/20 02:40:34;;;;;;;2.00;1.40;;;27.20;72.30;;;;;;5084625;28;20024;-42
2021/07/20 02:43:01;;;;;;;2.33;1.40;;;27.20;72.10;;;;;;5083972;28;20028;-42
2021/07/20 02:45:32;;;;;;;2.30;1.30;;;27.10;71.90;;;;;;5102700;28;20269;-42
2021/07/20 02:47:58;;;;;;;1.77;1.58;;;27.10;72.00;;;;;;5084764;28;20024;-42
2021/07/20 02:50:24;;;;;;;2.22;1.50;;;27.10;71.80;;;;;;5084392;28;20072;-42
2021/07/20 02:52:50;;;;;;;2.20;1.40;;;27.10;71.90;;;;;;5067537;28;20054;-42
2021/07/20 02:55:17;;;;;;;2.93;1.77;;;27.10;71.90;;;;;;5084111;28;20020;-43
2021/07/20 02:57:44;;;;;;;2.25;1.35;;;27.10;72.60;;;;;;5102386;28;20044;-42
2021/07/20 03:00:11;;;;;;;3.17;1.50;;;27.10;71.90;;;;;;5084352;28;20081;-42
2021/07/20 03:02:38;;;;;;;3.53;1.42;;;27.10;71.90;;;;;;5102408;28;20024;-42
2021/07/20 03:05:09;;;;;;;2.45;1.45;;;27.10;71.70;;;;;;5084340;28;20768;-42
2021/07/20 03:07:35;;;;;;;2.08;1.38;;;27.10;71.70;;;;;;5084386;28;20139;-42
2021/07/20 03:10:01;;;;;;;2.23;1.73;;;27.10;71.70;;;;;;5067499;28;20044;-42
2021/07/20 03:12:28;;;;;;;2.30;1.35;;;27.10;71.60;;;;;;5102352;28;20092;-42
2021/07/20 03:14:54;;;;;;;2.08;1.17;;;27.10;71.70;;;;;;5083961;28;20036;-42
2021/07/20 03:17:21;;;;;;;3.22;1.40;;;27.10;71.70;;;;;;5083944;28;20036;-42
2021/07/20 03:19:48;;;;;;;1.50;1.20;;;27.00;71.50;;;;;;5067754;28;20509;-43
2021/07/20 03:22:14;;;;;;;2.53;1.33;;;27.00;71.60;;;;;;5067643;28;20063;-42
2021/07/20 03:24:42;;;;;;;2.25;1.52;;;27.00;71.60;;;;;;5066964;28;20088;-42
2021/07/20 03:27:09;;;;;;;1.95;1.33;;;27.00;71.50;;;;;;5067456;28;20020;-43
2021/07/20 03:29:42;;;;;;;1.98;1.50;;;27.00;71.60;;;;;;5067501;28;20696;-42
2021/07/20 03:32:14;;;;;;;2.25;1.20;;;27.00;71.60;;;;;;5102096;28;20028;-42
2021/07/20 03:34:40;;;;;;;1.67;1.10;;;27.00;71.60;;;;;;5102139;28;20595;-42
2021/07/20 03:37:07;;;;;;;3.90;1.43;;;27.00;71.70;;;;;;5067462;28;20035;-43
2021/07/20 03:39:34;;;;;;;1.95;1.23;;;27.00;71.60;;;;;;5083972;28;20291;-42
2021/07/20 03:42:00;;;;;;;3.22;1.48;;;26.90;71.60;;;;;;5084083;28;20078;-42
2021/07/20 03:44:26;;;;;;;1.92;1.10;;;26.90;71.70;;;;;;5083640;28;20088;-42
2021/07/20 03:46:53;;;;;;;1.90;1.33;;;26.90;71.80;;;;;;5087059;28;20032;-42
2021/07/20 03:49:19;;;;;;;1.83;1.52;;;26.90;71.80;;;;;;5087691;28;20047;-42
2021/07/20 03:51:45;;;;;;;2.75;1.40;;;26.90;71.70;;;;;;5071092;28;20038;-42
2021/07/20 03:54:11;;;;;;;1.50;1.23;;;26.90;71.80;;;;;;5070481;28;20039;-42
2021/07/20 03:56:38;;;;;;;1.70;1.17;;;26.90;71.90;;;;;;5070796;28;20044;-42
2021/07/20 03:59:08;;;;;;;2.30;1.50;;;26.80;72.40;;;;;;5087521;28;20058;-42
2021/07/20 04:01:36;;;;;;;1.30;0.95;;;26.80;71.50;;;;;;5087969;28;20032;-42
2021/07/20 04:04:05;;;;;;;2.22;1.20;;;26.80;71.60;;;;;;5087469;28;20109;-42
2021/07/20 04:06:31;;;;;;;2.45;1.35;;;26.80;71.60;;;;;;5050400;28;20029;-43
2021/07/20 04:08:57;;;;;;;2.67;1.20;;;26.80;71.60;;;;;;5083961;28;20032;-42
2021/07/20 04:11:24;;;;;;;2.00;1.10;;;26.80;71.60;;;;;;5085215;28;20032;-42
2021/07/20 04:13:52;;;;;;;3.72;1.20;;;26.80;71.60;;;;;;5066786;28;20492;-42
2021/07/20 04:16:18;;;;;;;1.92;1.35;;;26.80;71.50;;;;;;5085031;28;20104;-42
2021/07/20 04:18:44;;;;;;;2.40;1.33;;;26.80;72.20;;;;;;5085393;28;20024;-42
2021/07/20 04:21:11;;;;;;;2.20;1.47;;;26.80;71.50;;;;;;5067072;28;20025;-42
2021/07/20 04:23:37;;;;;;;1.80;1.05;;;26.70;71.50;;;;;;5077399;28;20080;-42
2021/07/20 04:26:03;;;;;;;2.97;1.20;;;26.70;71.50;;;;;;5104974;28;20050;-42
2021/07/20 04:28:29;;;;;;;1.83;0.90;;;26.70;71.50;;;;;;5105031;28;20032;-42
2021/07/20 04:30:57;;;;;;;1.50;1.37;;;26.70;71.60;;;;;;5105063;28;20786;-42
2021/07/20 04:33:26;;;;;;;1.60;1.13;;;26.70;71.50;;;;;;5105317;28;20057;-42
2021/07/20 04:35:53;;;;;;;2.05;1.08;;;26.70;71.50;;;;;;5070288;28;20031;-43
2021/07/20 04:38:20;;;;;;;3.63;1.23;;;26.70;71.50;;;;;;5086964;28;20129;-42
2021/07/20 04:40:46;;;;;;;1.60;1.30;;;26.70;71.50;;;;;;5086789;28;20024;-42
2021/07/20 04:43:12;;;;;;;1.83;1.30;;;26.70;71.50;;;;;;5104836;28;20065;-43
2021/07/20 04:45:41;;;;;;;2.17;1.23;;;26.70;71.50;;;;;;5103906;28;20032;-42
2021/07/20 04:48:08;;;;;;;1.58;1.13;;;26.70;71.60;;;;;;5104850;28;20457;-45
2021/07/20 04:50:34;;;;;;;1.77;1.05;;;26.60;71.50;;;;;;5086341;28;20143;-42
2021/07/20 04:53:03;;;;;;;1.77;0.82;;;26.60;71.60;;;;;;5104450;28;20024;-43
2021/07/20 04:55:30;;;;;;;1.65;1.05;;;26.60;71.50;;;;;;5104731;28;20020;-42
2021/07/20 04:57:56;;;;;;;1.52;1.20;;;26.60;71.70;;;;;;5085514;28;20044;-42
2021/07/20 05:00:22;;;;;;;1.80;1.30;;;26.60;71.60;;;;;;5104453;28;20021;-42
2021/07/20 05:02:49;;;;;;;2.13;1.15;;;26.60;71.70;;;;;;5069603;28;20056;-42
2021/07/20 05:05:16;;;;;;;2.97;1.13;;;26.60;71.50;;;;;;5069832;28;20024;-42
2021/07/20 05:07:44;;;;;;;1.70;0.80;;;26.60;71.80;;;;;;5069414;28;20648;-42
2021/07/20 05:10:14;;;;;;;1.98;1.17;;;26.60;71.90;;;;;;5104482;28;20040;-42
2021/07/20 05:12:41;;;;;;;1.65;0.80;;;26.50;71.70;;;;;;5086382;28;20028;-42
2021/07/20 05:15:08;;;;;;;1.48;1.10;;;26.60;71.50;;;;;;5086143;28;20048;-42
2021/07/20 05:17:35;;;;;;;1.63;1.10;;;26.50;71.60;;;;;;5086245;28;20145;-42
2021/07/20 05:20:04;;;;;;;;;;;26.50;71.50;;;;;;5104910;28;20161;-42
2021/07/20 05:22:31;;;;;;;1.50;0.77;;;26.50;71.50;;;;;;5085490;28;19970;-42
2021/07/20 05:24:57;;;;;;;1.35;1.08;;;26.50;71.60;;;;;;5086358;28;20039;-42
2021/07/20 05:27:23;;;;;;;1.97;1.03;;;26.50;71.60;;;;;;5104005;28;20039;-42
2021/07/20 05:29:49;;;;;;;1.42;1.02;;;26.50;71.50;;;;;;5085834;28;20040;-42
2021/07/20 05:32:17;;;;;;;1.55;1.00;;;26.50;71.70;;;;;;5065076;28;20016;-42
2021/07/20 05:34:47;;;;;;;1.48;1.10;;;26.50;71.60;;;;;;5083774;28;20020;-43
2021/07/20 05:37:16;;;;;;;1.75;1.00;;;26.40;71.60;;;;;;5096984;28;20381;-42
2021/07/20 05:39:42;;;;;;;1.25;0.93;;;26.40;71.40;;;;;;5086240;28;20044;-42
2021/07/20 05:42:08;;;;;;;1.73;1.20;;;26.40;71.50;;;;;;5085496;28;20237;-42
2021/07/20 05:44:34;;;;;;;1.85;1.30;;;26.40;71.50;;;;;;5068841;28;20412;-42
2021/07/20 05:47:00;;;;;;;1.37;0.80;;;26.40;71.60;;;;;;5068923;28;20028;-42
2021/07/20 05:49:27;;;;;;;1.35;1.10;;;26.40;71.50;;;;;;5085607;28;20088;-42
2021/07/20 05:51:53;;;;;;;1.48;0.88;;;26.40;71.50;;;;;;5085374;28;20031;-42
2021/07/20 05:54:19;;;;;;;2.40;0.90;;;26.40;71.50;;;;;;5085561;28;20029;-42
2021/07/20 05:56:46;;;;;;;1.95;1.10;;;26.40;71.60;;;;;;5085379;28;20017;-42
2021/07/20 05:59:12;;;;;;;1.70;1.00;;;26.40;71.60;;;;;;5085357;28;20036;-44
2021/07/20 06:01:39;;;;;;;4.15;0.93;;;26.40;71.70;;;;;;5085005;28;20028;-42
2021/07/20 06:04:05;;;;;;;1.27;0.97;;;26.40;71.60;;;;;;5103416;28;20024;-42
2021/07/20 06:06:31;;;;;;;1.47;0.77;;;26.40;71.70;;;;;;5085209;28;20386;-42
2021/07/20 06:08:59;;;;;;;1.17;0.95;;;26.30;71.70;;;;;;5103527;28;20040;-43
2021/07/20 06:11:25;;;;;;;1.25;0.98;;;26.30;71.70;;;;;;5103147;28;20020;-42
2021/07/20 06:13:52;;;;;;;1.60;1.00;;;26.30;72.40;;;;;;5085015;28;20088;-42
2021/07/20 06:16:20;;;;;;;1.65;1.02;;;26.30;71.60;;;;;;5103132;28;20020;-42
2021/07/20 06:18:47;;;;;;;2.67;1.00;;;26.30;71.80;;;;;;5085003;28;20059;-42
2021/07/20 06:21:13;;;;;;;1.10;1.00;;;26.30;71.80;;;;;;5103300;28;20035;-43
2021/07/20 06:23:49;;;;;;;1.10;1.00;;;26.30;71.60;;;;;;5068150;28;20028;-42
2021/07/20 06:26:25;;;;;;;1.42;0.80;;;26.30;71.70;;;;;;5103073;28;20032;-42
2021/07/20 06:28:56;;;;;;;1.52;0.82;;;26.30;71.70;;;;;;5084803;28;20051;-42
2021/07/20 06:31:22;;;;;;;1.42;1.05;;;26.30;71.80;;;;;;5084844;28;20032;-42
2021/07/20 06:33:48;;;;;;;1.20;0.90;;;26.20;71.80;;;;;;5084572;28;20047;-42
2021/07/20 06:36:18;;;;;;;1.25;1.00;;;26.30;71.70;;;;;;5085074;28;20032;-42
2021/07/20 06:38:44;;;;;;;1.55;0.90;;;26.20;71.70;;;;;;5084984;28;20030;-42
2021/07/20 06:41:11;;;;;;;0.97;0.70;;;26.20;71.60;;;;;;5068319;28;20028;-42
2021/07/20 06:43:40;;;;;;;1.10;0.90;;;26.20;71.70;;;;;;5084223;28;20020;-42
2021/07/20 06:46:07;;;;;;;1.50;1.10;;;26.20;71.70;;;;;;5068440;28;20027;-42
2021/07/20 06:48:33;;;;;;;1.57;0.90;;;26.20;71.70;;;;;;5084914;28;20024;-42
2021/07/20 06:51:00;;;;;;;0.90;0.80;;;26.20;71.60;;;;;;5068238;28;20264;-42
2021/07/20 06:53:26;;;;;;;1.30;1.00;;;26.20;71.80;;;;;;5084628;28;20039;-44
2021/07/20 06:55:53;;;;;;;1.10;0.90;;;26.20;71.80;;;;;;5085004;28;20020;-42
2021/07/20 06:58:20;;;;;;;1.27;0.80;;;26.10;71.60;;;;;;5084498;28;20120;-42
2021/07/20 07:01:00;;;;;;;1.08;0.90;;;26.10;71.70;;;;;;5084732;28;20016;-42
2021/07/20 07:03:53;;;;;;;1.33;0.82;;;26.20;71.80;;;;;;5084562;28;20032;-42
2021/07/20 07:06:19;;;;;;;1.30;1.10;;;26.20;71.70;;;;;;5085362;28;20032;-42
2021/07/20 07:08:46;;;;;;;2.20;0.90;;;26.10;71.90;;;;;;5068082;28;20028;-42
2021/07/20 07:11:13;;;;;;;1.33;0.82;;;26.10;71.90;;;;;;5084832;28;20647;-42
2021/07/20 07:13:40;;;;;;;1.35;0.90;;;26.10;71.80;;;;;;5102315;28;20111;-42
2021/07/20 07:16:06;;;;;;;1.30;1.10;;;26.10;71.80;;;;;;5067788;28;20046;-42
2021/07/20 07:18:32;;;;;;;1.40;1.00;;;26.10;71.90;;;;;;5067806;28;20135;-42
2021/07/20 07:20:58;;;;;;;1.10;1.00;;;26.10;71.90;;;;;;5086389;28;20042;-42
2021/07/20 07:23:26;;;;;;;1.03;0.90;;;26.10;71.90;;;;;;5087901;28;20020;-42
2021/07/20 07:25:54;;;;;;;1.88;1.00;;;26.10;71.90;;;;;;5106632;28;20800;-42
2021/07/20 07:28:20;;;;;;;0.95;0.90;;;26.10;71.90;;;;;;5088278;28;20031;-42
2021/07/20 07:30:50;;;;;;;0.95;0.90;;;26.10;71.90;;;;;;5088471;28;20115;-42
2021/07/20 07:33:17;;;;;;;1.60;0.98;;;26.10;71.90;;;;;;5071602;28;20023;-42
2021/07/20 07:35:44;;;;;;;1.13;0.90;;;26.10;71.90;;;;;;5106681;28;20057;-42
2021/07/20 07:38:10;;;;;;;0.70;0.60;;;26.00;71.80;;;;;;5088199;28;20473;-42
2021/07/20 07:40:36;;;;;;;1.15;1.05;;;26.00;71.80;;;;;;5088173;28;20028;-42
2021/07/20 07:43:03;;;;;;;1.77;0.90;;;26.00;71.90;;;;;;5071253;28;20107;-42
2021/07/20 07:45:29;;;;;;;1.02;0.93;;;26.00;71.90;;;;;;5106324;28;20510;-43
2021/07/20 07:47:55;;;;;;;1.10;0.90;;;26.00;71.80;;;;;;5106281;28;20059;-43
2021/07/20 07:50:22;;;;;;;1.00;0.90;;;26.00;71.90;;;;;;5071323;28;20060;-42
2021/07/20 07:52:48;;;;;;;2.07;1.07;;;26.00;72.70;;;;;;5071013;28;20028;-42
2021/07/20 07:55:14;;;;;;;0.77;0.70;;;26.00;72.00;;;;;;5071676;28;20068;-42
2021/07/20 07:57:42;;;;;;;1.17;1.00;;;26.00;71.90;;;;;;5105902;28;20038;-42
2021/07/20 08:00:08;;;;;;;1.30;1.20;;;26.00;71.90;;;;;;5106326;28;20033;-42
2021/07/20 08:02:36;;;;;;;1.65;0.93;;;26.00;72.00;;;;;;5105896;28;20032;-43
2021/07/20 08:05:04;;;;;;;0.85;0.65;;;26.00;72.00;;;;;;5087925;28;20032;-42
2021/07/20 08:07:31;;;;;;;1.35;0.85;;;25.90;71.90;;;;;;5087472;28;20035;-42
2021/07/20 08:09:57;;;;;;;1.40;1.20;;;25.90;71.90;;;;;;5087218;28;20044;-42
2021/07/20 08:12:23;;;;;;;1.05;0.82;;;25.90;72.00;;;;;;5105754;28;20039;-42
2021/07/20 08:14:49;;;;;;;1.03;0.90;;;26.00;72.00;;;;;;5070845;28;20583;-42
2021/07/20 08:17:16;;;;;;;1.53;0.87;;;25.90;72.00;;;;;;5087641;28;20700;-42
2021/07/20 08:19:42;;;;;;;1.37;1.10;;;25.90;72.00;;;;;;5071050;28;20024;-43
2021/07/20 08:22:11;;;;;;;1.23;1.00;;;25.90;71.90;;;;;;5087304;28;20023;-42
2021/07/20 08:24:41;;;;;;;1.20;0.88;;;25.90;72.60;;;;;;5105273;28;20053;-42
2021/07/20 08:27:36;;;;;;;1.75;1.00;;;25.90;72.00;;;;;;5087703;28;20031;-42
2021/07/20 08:30:03;;;;;;;0.98;0.75;;;25.90;72.00;;;;;;5073710;28;20032;-42
2021/07/20 08:32:32;;;;;;;2.70;1.20;;;25.90;72.00;;;;;;5104293;28;20042;-42
2021/07/20 08:35:01;;;;;;;0.95;0.73;;;25.90;72.00;;;;;;5087361;28;20034;-42
2021/07/20 08:37:29;;;;;;;1.20;1.00;;;25.90;72.00;;;;;;5072674;28;20070;-42
2021/07/20 08:39:55;;;;;;;1.23;0.80;;;25.90;72.10;;;;;;5067149;28;20032;-42
2021/07/20 08:42:42;;;;;;;1.67;1.00;;;25.80;71.90;;;;;;5067123;28;20025;-42
2021/07/20 08:45:17;;;;;;;0.90;0.80;;;25.80;72.00;;;;;;5084504;28;20031;-42
2021/07/20 08:48:07;;;;;;;1.13;0.90;;;25.80;72.00;;;;;;5066956;28;20054;-42
2021/07/20 08:50:45;;;;;;;1.10;1.00;;;25.80;71.90;;;;;;5084812;28;20033;-42
2021/07/20 08:53:20;;;;;;;1.42;1.05;;;25.80;72.00;;;;;;5088464;28;20095;-42
2021/07/20 08:55:49;;;;;;;1.20;1.10;;;25.80;72.00;;;;;;5066495;28;20074;-42
2021/07/20 08:58:24;;;;;;;1.67;0.90;;;25.80;72.00;;;;;;5081796;28;20046;-42
2021/07/20 09:00:53;;;;;;;1.13;0.80;;;25.80;72.00;;;;;;5071267;28;20036;-43
2021/07/20 09:03:25;;;;;;;1.00;0.82;;;25.80;72.10;;;;;;5104811;28;20042;-42
2021/07/20 09:06:05;;;;;;;1.13;1.00;;;25.80;72.10;;;;;;5104521;28;20027;-43
2021/07/20 09:08:44;;;;;;;1.13;0.90;;;25.80;72.10;;;;;;5087456;28;20028;-43
2021/07/20 09:11:43;;;;;;;1.10;0.80;;;25.80;72.10;;;;;;5087847;28;20032;-42
2021/07/20 09:14:18;;;;;;;;;;;25.80;72.20;;;;;;5104822;28;20142;-43
2021/07/20 09:16:50;;;;;;;1.48;0.80;;;25.80;72.10;;;;;;5104685;28;19904;-43
2021/07/20 09:19:24;;;;;;;1.48;1.00;;;25.70;72.20;;;;;;5104760;28;20043;-43
2021/07/20 09:21:50;;;;;;;1.42;1.10;;;25.70;72.20;;;;;;5103418;28;20023;-43
2021/07/20 09:24:20;;;;;;;1.50;1.08;;;25.70;72.20;;;;;;5104082;28;20024;-43
2021/07/20 09:26:56;;;;;;;1.45;1.02;;;25.70;72.10;;;;;;5086185;28;20024;-43
2021/07/20 09:29:24;;;;;;;1.02;0.90;;;25.70;72.10;;;;;;5085978;28;20032;-43
2021/07/20 09:32:02;;;;;;;0.85;0.70;;;25.70;72.10;;;;;;5086323;28;20032;-43
2021/07/20 09:34:33;;;;;;;0.88;0.80;;;25.70;72.00;;;;;;5103905;28;20040;-42
2021/07/20 09:37:09;;;;;;;1.20;1.08;;;25.70;72.10;;;;;;5086203;28;20024;-42
2021/07/20 09:40:03;;;;;;;1.92;1.13;;;25.70;72.10;;;;;;5104083;28;20051;-41
2021/07/20 09:42:43;;;;;;;1.48;0.93;;;25.70;72.20;;;;;;5086387;28;20021;-42
2021/07/20 09:45:14;;;;;;;1.15;1.00;;;25.70;72.10;;;;;;5086338;28;20060;-42
2021/07/20 09:47:53;;;;;;;1.00;0.90;;;25.70;72.30;;;;;;5069126;28;20494;-42
2021/07/20 09:50:20;;;;;;;0.95;0.77;;;25.70;72.20;;;;;;5087003;28;20036;-42
2021/07/20 09:53:09;;;;;;;1.15;1.02;;;25.70;72.20;;;;;;5103962;28;20031;-42
2021/07/20 09:56:14;;;;;;;1.25;0.73;;;25.60;72.20;;;;;;5103601;28;20036;-42
2021/07/20 09:59:08;;;;;;;0.80;0.80;;;25.60;72.10;;;;;;5103645;28;20052;-42
2021/07/20 10:01:48;;;;;;;1.20;1.00;;;25.60;72.20;;;;;;5103754;28;20043;-41
2021/07/20 10:04:25;;;;;;;0.90;0.75;;;25.60;72.10;;;;;;5085408;28;20690;-41
2021/07/20 10:07:06;;;;;;;1.70;0.83;;;25.60;72.30;;;;;;5085981;28;20035;-42
2021/07/20 10:09:57;;;;;;;2.00;0.65;;;25.60;72.20;;;;;;5102674;28;20039;-42
2021/07/20 10:12:42;;;;;;;1.83;0.80;;;25.60;72.20;;;;;;5103363;28;20484;-42
2021/07/20 10:15:09;;;;;;;0.82;0.80;;;25.60;72.30;;;;;;5085170;28;20024;-42
2021/07/20 10:17:49;;;;;;;1.23;0.80;;;25.60;72.20;;;;;;5103352;28;20051;-41
2021/07/20 10:20:25;;;;;;;1.40;1.10;;;25.60;72.20;;;;;;5085223;28;20032;-42
2021/07/20 10:23:22;;;;;;;1.38;0.90;;;25.60;72.30;;;;;;5082998;28;20444;-42
2021/07/20 10:26:10;;;;;;;1.08;0.93;;;25.60;72.20;;;;;;5082845;28;20032;-42
2021/07/20 10:28:54;;;;;;;1.50;1.20;;;25.60;72.20;;;;;;5064998;28;20035;-42
2021/07/20 10:31:24;;;;;;;1.17;0.70;;;25.60;72.20;;;;;;5082962;28;20032;-41
2021/07/20 10:33:56;;;;;;;1.10;0.80;;;25.60;72.20;;;;;;5064823;28;20027;-42
2021/07/20 10:36:33;;;;;;;1.52;1.00;;;25.60;72.20;;;;;;5053916;28;20087;-42
2021/07/20 10:39:05;;;;;;;0.80;0.75;;;25.60;72.20;;;;;;5103208;28;20032;-42
2021/07/20 10:41:54;;;;;;;1.13;0.75;;;25.50;72.20;;;;;;5084864;28;20032;-42
2021/07/20 10:44:30;;;;;;;1.00;0.77;;;25.60;72.40;;;;;;5090328;28;20473;-42
2021/07/20 10:46:56;;;;;;;0.73;0.70;;;25.50;72.30;;;;;;5068439;28;20060;-42
2021/07/20 10:49:38;;;;;;;1.27;0.88;;;25.60;72.30;;;;;;5102955;28;20100;-42
2021/07/20 10:52:25;;;;;;;0.80;0.80;;;25.50;72.20;;;;;;5102601;28;20028;-42
2021/07/20 10:54:55;;;;;;;1.02;0.77;;;25.50;72.20;;;;;;5084084;28;20032;-41
2021/07/20 10:57:24;;;;;;;2.33;1.00;;;25.50;72.20;;;;;;5068007;28;20044;-42
2021/07/20 11:00:02;;;;;;;0.93;0.75;;;25.50;72.30;;;;;;5084831;28;20479;-42
2021/07/20 11:02:49;;;;;;;1.67;0.88;;;25.50;72.30;;;;;;5102834;28;20020;-42
2021/07/20 11:05:15;;;;;;;1.13;0.90;;;25.50;72.30;;;;;;5084552;28;20043;-41
2021/07/20 11:07:50;;;;;;;1.05;0.80;;;25.50;72.30;;;;;;5084251;28;20032;-41
2021/07/20 11:10:38;;;;;;;1.42;0.80;;;25.50;72.40;;;;;;5063842;28;20039;-41
2021/07/20 11:13:10;;;;;;;1.45;1.00;;;25.50;72.30;;;;;;5069464;28;20017;-42
2021/07/20 11:15:37;;;;;;;0.90;0.70;;;25.50;72.30;;;;;;5083893;28;20069;-42
2021/07/20 11:18:14;;;;;;;1.45;0.90;;;25.50;72.30;;;;;;5102688;28;20016;-42
2021/07/20 11:20:41;;;;;;;1.30;0.70;;;25.40;72.30;;;;;;5084284;28;20062;-42
2021/07/20 11:23:08;;;;;;;1.63;0.93;;;25.40;72.30;;;;;;5084424;28;20183;-42
2021/07/20 11:25:34;;;;;;;0.65;0.60;;;25.40;72.30;;;;;;5102547;28;20507;-41
2021/07/20 11:28:00;;;;;;;0.70;0.70;;;25.40;72.30;;;;;;5102432;28;20074;-42
2021/07/20 11:30:32;;;;;;;1.15;0.88;;;25.40;72.40;;;;;;5067625;28;20285;-42
2021/07/20 11:33:22;;;;;;;2.38;1.48;;;25.40;72.40;;;;;;5067724;28;20028;-41
2021/07/20 11:35:52;;;;;;;0.70;0.70;;;25.40;72.30;;;;;;5067915;28;20078;-43
2021/07/20 11:38:22;;;;;;;1.13;0.70;;;25.40;72.40;;;;;;5084407;28;20020;-42
2021/07/20 11:40:49;;;;;;;1.05;0.70;;;25.40;72.40;;;;;;5102339;28;20024;-42
2021/07/20 11:43:22;;;;;;;2.17;0.98;;;25.40;72.30;;;;;;5084181;28;20384;-41
2021/07/20 11:45:58;;;;;;;1.02;0.80;;;25.40;72.50;;;;;;5067875;28;20028;-42
2021/07/20 11:48:25;;;;;;;0.95;0.80;;;25.40;72.40;;;;;;5067669;28;20061;-41
2021/07/20 11:51:00;;;;;;;1.77;0.98;;;25.40;73.10;;;;;;5083859;28;20047;-44
2021/07/20 11:53:32;;;;;;;1.25;0.82;;;25.40;72.50;;;;;;5068132;28;20024;-42
2021/07/20 11:55:59;;;;;;;0.70;0.68;;;25.40;72.40;;;;;;5102271;28;20027;-42
2021/07/20 11:58:59;;;;;;;1.20;0.80;;;25.40;72.50;;;;;;5083957;28;20055;-42
2021/07/20 12:01:40;;;;;;;1.00;0.70;;;25.40;72.50;;;;;;5102239;28;20054;-42
2021/07/20 12:04:39;;;;;;;0.90;0.80;;;25.40;72.50;;;;;;5102103;28;20035;-42
2021/07/20 12:07:11;;;;;;;1.08;0.77;;;25.40;72.50;;;;;;5085312;28;20050;-41
2021/07/20 12:10:09;;;;;;;0.65;0.65;;;25.40;72.40;;;;;;5105656;28;20043;-42
2021/07/20 12:12:48;;;;;;;1.02;0.80;;;25.40;72.50;;;;;;5087158;28;20111;-42
2021/07/20 12:15:19;;;;;;;1.10;0.85;;;25.30;72.50;;;;;;5105437;28;20035;-42
2021/07/20 12:17:45;;;;;;;0.80;0.63;;;25.30;72.40;;;;;;5105321;28;20469;-42
2021/07/20 12:20:14;;;;;;;1.20;0.88;;;25.30;72.40;;;;;;5105631;28;20032;-42
2021/07/20 12:22:40;;;;;;;0.82;0.70;;;25.30;72.50;;;;;;5105234;28;20027;-42
2021/07/20 12:25:07;;;;;;;1.00;0.80;;;25.30;72.60;;;;;;5105418;28;20040;-42
2021/07/20 12:27:37;;;;;;;1.00;0.88;;;25.30;72.50;;;;;;5105016;28;20031;-41
2021/07/20 12:30:10;;;;;;;1.02;0.80;;;25.30;72.50;;;;;;5105452;28;20392;-41
2021/07/20 12:32:41;;;;;;;0.80;0.68;;;25.30;72.60;;;;;;5105265;28;20016;-42
2021/07/20 12:35:11;;;;;;;0.70;0.70;;;25.30;72.60;;;;;;5105116;28;20636;-41
2021/07/20 12:37:39;;;;;;;0.93;0.80;;;25.30;72.60;;;;;;5104793;28;20036;-46
2021/07/20 12:40:10;;;;;;;0.88;0.77;;;25.30;72.60;;;;;;5104878;28;20038;-42
2021/07/20 12:42:39;;;;;;;1.63;0.90;;;25.30;72.60;;;;;;5105071;28;20035;-42
2021/07/20 12:45:14;;;;;;;0.80;0.80;;;25.30;72.60;;;;;;5087125;28;20055;-42
2021/07/20 12:47:45;;;;;;;0.90;0.90;;;25.30;72.70;;;;;;5104573;28;20020;-42
2021/07/20 12:50:13;;;;;;;1.35;0.80;;;25.30;72.60;;;;;;5104613;28;20044;-42
2021/07/20 12:52:41;;;;;;;1.05;0.95;;;25.30;72.60;;;;;;5104806;28;20027;-42
2021/07/20 12:55:12;;;;;;;0.73;0.65;;;25.30;72.60;;;;;;5104830;28;20025;-42
2021/07/20 12:57:38;;;;;;;1.58;0.63;;;25.30;72.60;;;;;;5104234;28;20052;-42
2021/07/20 13:00:08;;;;;;;0.87;0.80;;;25.30;72.60;;;;;;5104639;28;20030;-42
2021/07/20 13:02:35;;;;;;;1.25;0.80;;;25.30;72.70;;;;;;5104444;28;20024;-42
2021/07/20 13:05:05;;;;;;;1.30;0.70;;;25.30;72.70;;;;;;5104584;28;20095;-42
2021/07/20 13:07:34;;;;;;;1.75;0.95;;;25.30;72.70;;;;;;5104032;28;20024;-42